Time;durP1;ratioP1;P1;durP2;ratioP2;P2;SDS_P1;SDS_P2;PMS_P1;PMS_P2;Temp;Humidity;BMP_temperature;BMP_pressure;BME280_temperature;BME280_humidity;BME280_pressure;Samples;Min_cycle;Max_cycle;Signal;HPM_P1;HPM_P2
2022/04/07 00:00:45;;;;;;;20.70;12.05;;;;;;;6.82;100.00;100612.02;1741002;82;21569;-61
2022/04/07 00:03:12;;;;;;;20.95;12.05;;;;;;;6.82;100.00;100615.86;1740780;82;21043;-61
2022/04/07 00:05:41;;;;;;;20.48;11.83;;;;;;;6.84;100.00;100606.42;1740786;82;21047;-61
2022/04/07 00:08:10;;;;;;;22.52;11.83;;;;;;;6.84;100.00;100606.87;1741114;82;21048;-61
2022/04/07 00:10:38;;;;;;;20.70;12.28;;;;;;;6.82;100.00;100606.91;1740938;82;21087;-61
2022/04/07 00:13:08;;;;;;;26.12;12.80;;;;;;;6.84;100.00;100605.14;1741064;82;21035;-61
2022/04/07 00:15:35;;;;;;;19.77;12.35;;;;;;;6.80;100.00;100604.38;1741115;82;21036;-61
2022/04/07 00:18:06;;;;;;;21.75;12.25;;;;;;;6.79;100.00;100609.53;1740875;82;21028;-61
2022/04/07 00:20:34;;;;;;;20.95;12.65;;;;;;;6.73;100.00;100613.53;1741068;82;21058;-61
2022/04/07 00:23:04;;;;;;;24.40;12.82;;;;;;;6.72;100.00;100614.42;1740876;82;21060;-61
2022/04/07 00:25:31;;;;;;;23.75;12.05;;;;;;;6.67;100.00;100614.98;1741286;82;21015;-61
2022/04/07 00:27:59;;;;;;;19.98;11.55;;;;;;;6.65;100.00;100626.55;1740875;82;21080;-61
2022/04/07 00:30:26;;;;;;;20.65;13.25;;;;;;;6.64;100.00;100627.86;1740957;82;21654;-61
2022/04/07 00:32:54;;;;;;;25.15;13.13;;;;;;;6.64;100.00;100626.58;1741298;82;21563;-61
2022/04/07 00:35:24;;;;;;;22.13;13.53;;;;;;;6.60;100.00;100633.48;1740888;82;21055;-61
2022/04/07 00:37:50;;;;;;;22.98;12.30;;;;;;;6.57;100.00;100620.34;1741459;81;21504;-61
2022/04/07 00:40:18;;;;;;;26.20;14.05;;;;;;;6.50;100.00;100625.20;1740892;82;21088;-61
2022/04/07 00:42:51;;;;;;;22.75;14.28;;;;;;;6.45;100.00;100623.22;1741018;82;21414;-61
2022/04/07 00:45:23;;;;;;;23.77;14.30;;;;;;;6.44;100.00;100622.80;1741044;81;21011;-61
2022/04/07 00:47:51;;;;;;;26.77;14.73;;;;;;;6.42;100.00;100626.67;1741189;82;21543;-61
2022/04/07 00:50:21;;;;;;;22.82;13.08;;;;;;;6.37;100.00;100618.73;1740977;82;21040;-61
2022/04/07 00:52:55;;;;;;;27.73;14.05;;;;;;;6.31;100.00;100621.00;1740790;82;21036;-61
2022/04/07 00:55:25;;;;;;;23.40;13.70;;;;;;;6.25;100.00;100615.20;1741081;82;21107;-61
2022/04/07 00:57:53;;;;;;;19.73;13.10;;;;;;;6.29;100.00;100620.64;1740979;82;21556;-61
2022/04/07 01:00:21;;;;;;;21.23;13.40;;;;;;;6.27;100.00;100619.84;1752371;82;21520;-61
2022/04/07 01:02:50;;;;;;;20.40;13.05;;;;;;;6.21;100.00;100620.37;1754884;82;21047;-62
2022/04/07 01:05:23;;;;;;;21.23;12.75;;;;;;;6.34;100.00;100623.91;1754539;81;21496;-61
2022/04/07 01:07:49;;;;;;;21.70;12.70;;;;;;;6.34;100.00;100616.23;1754943;80;21531;-61
2022/04/07 01:10:16;;;;;;;22.30;13.65;;;;;;;6.32;100.00;100614.99;1754821;82;21048;-61
2022/04/07 01:12:46;;;;;;;24.63;13.43;;;;;;;6.32;100.00;100611.16;1754497;82;21129;-61
2022/04/07 01:15:13;;;;;;;17.05;12.23;;;;;;;6.34;100.00;100616.23;1755260;81;21047;-61
2022/04/07 01:17:40;;;;;;;21.82;13.50;;;;;;;6.40;100.00;100614.36;1754572;82;21070;-61
2022/04/07 01:20:11;;;;;;;25.85;13.22;;;;;;;6.40;100.00;100620.75;1754794;81;21036;-61
2022/04/07 01:22:41;;;;;;;20.00;13.22;;;;;;;6.41;100.00;100620.34;1754861;81;21027;-61
2022/04/07 01:25:11;;;;;;;22.82;13.08;;;;;;;6.44;100.00;100627.08;1754298;81;21570;-62
2022/04/07 01:27:38;;;;;;;29.05;14.58;;;;;;;6.58;100.00;100629.69;1754610;81;21078;-62
2022/04/07 01:30:08;;;;;;;27.37;15.35;;;;;;;6.60;100.00;100630.92;1754627;82;21090;-61
2022/04/07 01:32:44;;;;;;;27.37;15.75;;;;;;;6.62;100.00;100624.88;1754765;81;20995;-62
2022/04/07 01:35:13;;;;;;;25.77;16.32;;;;;;;6.67;100.00;100625.20;1754624;81;21019;-62
2022/04/07 01:37:45;;;;;;;29.15;15.93;;;;;;;6.73;100.00;100632.30;1754773;81;21506;-62
2022/04/07 01:40:16;;;;;;;30.85;16.80;;;;;;;6.83;100.00;100630.31;1754825;82;21082;-61
2022/04/07 01:42:45;;;;;;;27.30;17.07;;;;;;;6.82;100.00;100637.61;1754866;81;20999;-61
2022/04/07 01:45:13;;;;;;;28.92;17.55;;;;;;;6.74;100.00;100639.08;1754736;82;21491;-61
2022/04/07 01:47:43;;;;;;;28.45;17.73;;;;;;;6.74;100.00;100641.64;1754586;82;21098;-61
2022/04/07 01:50:11;;;;;;;32.55;19.52;;;;;;;6.62;100.00;100645.34;1754830;81;20992;-63
2022/04/07 01:52:45;;;;;;;36.05;19.48;;;;;;;6.60;100.00;100639.88;1754648;82;21047;-62
2022/04/07 01:55:09;;;;;;;31.35;19.20;;;;;;;6.64;100.00;100649.60;1753966;80;21567;-61
2022/04/07 01:57:39;;;;;;;37.10;20.48;;;;;;;6.60;100.00;100648.38;1755032;82;21496;-62
2022/04/07 02:00:08;;;;;;;35.38;20.77;;;;;;;6.64;100.00;100642.77;1754648;81;21078;-61
2022/04/07 02:02:42;;;;;;;39.03;21.77;;;;;;;6.68;100.00;100649.92;1754507;82;21015;-61
2022/04/07 02:05:11;;;;;;;34.30;20.43;;;;;;;6.69;100.00;100644.78;1754669;81;21484;-62
2022/04/07 02:07:42;;;;;;;37.33;21.68;;;;;;;6.75;100.00;100639.91;1754688;82;21012;-61
2022/04/07 02:10:13;;;;;;;39.13;22.48;;;;;;;6.74;100.00;100649.77;1754553;81;21027;-61
2022/04/07 02:12:43;;;;;;;38.65;22.35;;;;;;;6.67;100.00;100651.65;1754683;80;21523;-61
2022/04/07 02:15:13;;;;;;;38.67;23.98;;;;;;;6.72;100.00;100647.23;1754885;81;21113;-62
2022/04/07 02:17:41;;;;;;;37.83;22.73;;;;;;;6.72;100.00;100644.68;1754461;82;21027;-61
2022/04/07 02:20:12;;;;;;;35.88;21.97;;;;;;;6.75;100.00;100644.61;1754757;81;20992;-62
2022/04/07 02:22:40;;;;;;;37.98;22.98;;;;;;;6.71;100.00;100643.44;1754523;81;21504;-62
2022/04/07 02:25:11;;;;;;;45.45;24.37;;;;;;;6.67;100.00;100633.74;1754575;81;21519;-61
2022/04/07 02:27:42;;;;;;;39.27;22.62;;;;;;;6.68;100.00;100637.13;1754881;81;21480;-61
2022/04/07 02:30:14;;;;;;;36.00;22.45;;;;;;;6.65;100.00;100639.75;1754679;82;21063;-62
2022/04/07 02:32:42;;;;;;;39.23;23.50;;;;;;;6.58;100.00;100641.64;1754809;82;21599;-61
2022/04/07 02:35:13;;;;;;;39.90;23.32;;;;;;;6.61;100.00;100642.41;1754466;82;21035;-61
2022/04/07 02:37:40;;;;;;;40.98;22.80;;;;;;;6.54;100.00;100645.98;1754435;82;21046;-61
2022/04/07 02:40:09;;;;;;;37.28;22.35;;;;;;;6.51;100.00;100646.49;1754765;81;21074;-61
2022/04/07 02:42:38;;;;;;;40.45;23.52;;;;;;;6.47;100.00;100644.47;1754535;81;21071;-61
2022/04/07 02:45:06;;;;;;;41.53;24.18;;;;;;;6.48;100.00;100633.35;1754769;82;21011;-62
2022/04/07 02:47:38;;;;;;;40.90;23.27;;;;;;;6.54;100.00;100634.48;1754786;82;21535;-61
2022/04/07 02:50:07;;;;;;;40.23;23.45;;;;;;;6.51;100.00;100644.80;1754901;81;20992;-61
2022/04/07 02:52:34;;;;;;;43.75;24.45;;;;;;;6.39;100.00;100647.66;1754723;82;21026;-62
2022/04/07 02:55:03;;;;;;;39.20;23.55;;;;;;;6.44;100.00;100646.26;1754497;82;21629;-62
2022/04/07 02:57:33;;;;;;;45.38;24.65;;;;;;;6.51;100.00;100647.77;1754939;82;21595;-61
2022/04/07 03:00:04;;;;;;;43.78;25.30;;;;;;;6.54;100.00;100647.27;1748157;82;21546;-62
2022/04/07 03:02:31;;;;;;;40.38;23.98;;;;;;;6.54;100.00;100640.87;1741030;82;21059;-61
2022/04/07 03:04:58;;;;;;;39.83;23.75;;;;;;;6.46;100.00;100640.22;1740739;82;21031;-62
2022/04/07 03:07:26;;;;;;;41.63;24.50;;;;;;;6.46;100.00;100640.67;1740783;82;21504;-62
2022/04/07 03:09:54;;;;;;;44.20;25.95;;;;;;;6.53;100.00;100647.30;1741021;82;21107;-62
2022/04/07 03:12:22;;;;;;;41.33;24.45;;;;;;;6.52;100.00;100645.62;1740788;82;21087;-62
2022/04/07 03:14:49;;;;;;;45.70;26.17;;;;;;;6.56;100.00;100645.95;1740785;82;21087;-62
2022/04/07 03:17:19;;;;;;;42.45;24.15;;;;;;;6.60;100.00;100645.00;1741000;82;21317;-62
2022/04/07 03:19:47;;;;;;;43.13;24.77;;;;;;;6.60;100.00;100639.44;1740659;82;21419;-62
2022/04/07 03:22:15;;;;;;;45.65;24.98;;;;;;;6.58;100.00;100648.03;1741218;82;21537;-62
2022/04/07 03:24:43;;;;;;;44.88;25.02;;;;;;;6.68;100.00;100646.92;1740806;82;21051;-62
2022/04/07 03:27:11;;;;;;;41.92;24.92;;;;;;;6.73;100.00;100650.63;1740778;82;21044;-62
2022/04/07 03:29:39;;;;;;;42.17;25.35;;;;;;;6.73;100.00;100648.07;1741285;82;21048;-62
2022/04/07 03:32:08;;;;;;;39.80;24.82;;;;;;;6.76;100.00;100644.17;1740781;82;21492;-62
2022/04/07 03:34:39;;;;;;;44.75;26.10;;;;;;;6.85;100.00;100645.19;1741152;82;21046;-62
2022/04/07 03:37:07;;;;;;;44.70;26.62;;;;;;;6.93;100.00;100649.66;1741248;82;21523;-62
2022/04/07 03:39:37;;;;;;;41.00;24.40;;;;;;;6.95;100.00;100648.34;1740831;82;21040;-61
2022/04/07 03:42:05;;;;;;;43.63;25.80;;;;;;;7.01;100.00;100655.86;1741161;82;21047;-62
2022/04/07 03:44:33;;;;;;;41.50;23.92;;;;;;;7.00;100.00;100652.47;1741156;82;21028;-62
2022/04/07 03:47:01;;;;;;;41.83;25.25;;;;;;;7.04;100.00;100647.28;1741052;82;21031;-62
2022/04/07 03:49:30;;;;;;;45.35;26.68;;;;;;;7.04;100.00;100648.11;1740818;82;21584;-61
2022/04/07 03:51:57;;;;;;;42.70;27.20;;;;;;;7.07;100.00;100649.30;1740905;82;21115;-62
2022/04/07 03:54:29;;;;;;;44.20;26.45;;;;;;;7.10;100.00;100653.52;1741101;82;21040;-62
2022/04/07 03:56:57;;;;;;;45.70;27.30;;;;;;;7.24;100.00;100659.09;1740878;82;21584;-62
2022/04/07 03:59:25;;;;;;;47.15;27.48;;;;;;;7.38;100.00;100662.52;1742456;82;21075;-62
2022/04/07 04:01:54;;;;;;;43.30;26.25;;;;;;;7.41;100.00;100662.00;1754716;81;21087;-62
2022/04/07 04:04:22;;;;;;;49.27;27.27;;;;;;;7.50;100.00;100657.07;1754580;81;21563;-61
2022/04/07 04:06:50;;;;;;;45.98;27.62;;;;;;;7.50;100.00;100651.09;1754881;81;21066;-62
2022/04/07 04:09:18;;;;;;;43.87;27.35;;;;;;;7.58;100.00;100660.25;1754668;82;21047;-62
2022/04/07 04:11:47;;;;;;;45.73;27.55;;;;;;;7.90;100.00;100657.14;1754868;81;21062;-62
2022/04/07 04:14:15;;;;;;;48.60;27.32;;;;;;;8.02;100.00;100659.33;1754665;82;21074;-62
2022/04/07 04:16:44;;;;;;;50.25;29.02;;;;;;;8.06;100.00;100658.80;1754716;82;21504;-62
2022/04/07 04:19:12;;;;;;;47.03;28.15;;;;;;;8.11;100.00;100659.51;1754925;82;21038;-62
2022/04/07 04:21:42;;;;;;;50.98;29.67;;;;;;;8.12;100.00;100662.45;1754807;81;21039;-62
2022/04/07 04:24:11;;;;;;;46.30;28.85;;;;;;;8.18;100.00;100656.30;1754900;82;21090;-62
2022/04/07 04:26:38;;;;;;;52.85;29.72;;;;;;;8.21;100.00;100657.05;1754683;81;21137;-62
2022/04/07 04:29:06;;;;;;;46.15;29.75;;;;;;;8.30;100.00;100658.92;1754514;82;21532;-62
2022/04/07 04:31:35;;;;;;;45.63;28.98;;;;;;;8.30;100.00;100653.79;1754815;82;21099;-62
2022/04/07 04:34:02;;;;;;;44.85;26.97;;;;;;;8.30;100.00;100658.47;1754665;81;21034;-62
2022/04/07 04:36:33;;;;;;;40.80;26.07;;;;;;;8.36;100.00;100654.88;1754764;82;21070;-62
2022/04/07 04:39:02;;;;;;;41.55;27.45;;;;;;;8.32;100.00;100650.73;1754646;82;21086;-62
2022/04/07 04:41:32;;;;;;;42.05;27.00;;;;;;;8.34;100.00;100651.07;1754642;81;21512;-62
2022/04/07 04:44:00;;;;;;;45.78;28.25;;;;;;;8.39;100.00;100652.19;1754956;81;21046;-62
2022/04/07 04:46:28;;;;;;;47.23;26.80;;;;;;;8.38;100.00;100645.41;1754530;81;21082;-62
2022/04/07 04:48:55;;;;;;;41.02;26.90;;;;;;;8.35;100.00;100647.63;1754872;82;21074;-62
2022/04/07 04:51:24;;;;;;;41.28;24.65;;;;;;;8.33;100.00;100645.98;1754556;81;21032;-62
2022/04/07 04:53:51;;;;;;;42.88;25.43;;;;;;;8.34;100.00;100646.39;1754838;82;21503;-62
2022/04/07 04:56:20;;;;;;;44.83;25.82;;;;;;;8.31;100.00;100651.15;1754556;82;21082;-62
2022/04/07 04:58:48;;;;;;;35.98;23.60;;;;;;;8.35;100.00;100650.61;1754819;82;21012;-63
2022/04/07 05:01:15;;;;;;;37.95;24.80;;;;;;;8.44;100.00;100647.80;1754519;82;21531;-62
2022/04/07 05:03:44;;;;;;;36.93;23.52;;;;;;;8.50;100.00;100649.33;1749800;82;21039;-62
2022/04/07 05:06:11;;;;;;;35.03;22.58;;;;;;;8.58;100.00;100649.91;1723833;83;21028;-62
2022/04/07 05:08:40;;;;;;;35.30;22.32;;;;;;;8.68;100.00;100658.11;1746361;82;21073;-62
2022/04/07 05:11:08;;;;;;;37.05;22.40;;;;;;;8.71;100.00;100660.14;1746452;82;21018;-62
2022/04/07 05:13:37;;;;;;;35.03;22.60;;;;;;;8.73;100.00;100651.11;1720151;83;21008;-63
2022/04/07 05:16:15;;;;;;;37.78;23.40;;;;;;;8.75;100.00;100648.88;1765736;80;21020;-62
2022/04/07 05:18:38;;;;;;;34.25;21.10;;;;;;;8.82;100.00;100659.34;1714670;83;21028;-62
2022/04/07 05:21:06;;;;;;;29.37;18.48;;;;;;;8.88;100.00;100655.73;1719968;83;21024;-62
2022/04/07 05:23:33;;;;;;;27.20;18.35;;;;;;;8.90;100.00;100659.08;1724059;83;21022;-62
2022/04/07 05:26:01;;;;;;;30.25;19.37;;;;;;;8.92;100.00;100651.30;1725777;82;21053;-62
2022/04/07 05:28:28;;;;;;;30.65;18.82;;;;;;;8.97;100.00;100654.11;1764204;80;21033;-62
2022/04/07 05:30:56;;;;;;;30.02;18.87;;;;;;;9.03;100.00;100654.34;1722631;83;21541;-62
2022/04/07 05:33:23;;;;;;;25.72;18.02;;;;;;;9.20;100.00;100658.87;1747790;82;21043;-62
2022/04/07 05:35:52;;;;;;;26.90;17.98;;;;;;;9.34;100.00;100652.78;1725024;83;21058;-62
2022/04/07 05:38:19;;;;;;;25.65;16.65;;;;;;;9.41;100.00;100655.53;1746706;82;21047;-62
2022/04/07 05:40:47;;;;;;;22.80;16.42;;;;;;;9.55;100.00;100653.73;1725780;83;20980;-61
2022/04/07 05:43:14;;;;;;;25.97;17.12;;;;;;;9.67;100.00;100653.73;1753371;82;21524;-62
2022/04/07 05:45:45;;;;;;;25.05;16.70;;;;;;;9.71;100.00;100657.00;1742910;82;20998;-62
2022/04/07 05:48:13;;;;;;;22.93;15.23;;;;;;;9.77;100.00;100660.19;1748275;82;21012;-62
2022/04/07 05:50:41;;;;;;;18.65;13.03;;;;;;;9.80;100.00;100657.48;1764384;80;21006;-62
2022/04/07 05:53:10;;;;;;;21.07;13.32;;;;;;;9.82;100.00;100660.84;1746012;82;22703;-62
2022/04/07 05:55:38;;;;;;;21.73;12.80;;;;;;;9.75;100.00;100649.56;1749301;81;21035;-62
2022/04/07 05:58:08;;;;;;;17.92;12.73;;;;;;;9.75;100.00;100650.84;1743064;81;21071;-62
2022/04/07 06:00:37;;;;;;;18.07;12.73;;;;;;;9.86;100.00;100656.88;1742383;82;21493;-62
2022/04/07 06:03:05;;;;;;;15.08;11.80;;;;;;;10.08;100.00;100658.16;1747996;82;21016;-62
2022/04/07 06:05:35;;;;;;;17.40;13.72;;;;;;;10.10;100.00;100658.94;1742753;82;21048;-62
2022/04/07 06:08:05;;;;;;;18.70;13.62;;;;;;;10.21;100.00;100650.33;1747230;81;21497;-62
2022/04/07 06:10:32;;;;;;;19.12;13.72;;;;;;;10.43;100.00;100646.47;1743217;81;21004;-62
2022/04/07 06:13:01;;;;;;;20.20;14.40;;;;;;;10.61;100.00;100649.56;1741305;82;21507;-63
2022/04/07 06:15:30;;;;;;;19.48;13.78;;;;;;;10.73;100.00;100650.78;1744447;82;21047;-62
2022/04/07 06:17:58;;;;;;;20.12;13.88;;;;;;;10.79;100.00;100645.83;1741695;82;22709;-62
2022/04/07 06:20:25;;;;;;;21.68;14.13;;;;;;;10.81;100.00;100649.18;1743644;82;21016;-62
2022/04/07 06:22:54;;;;;;;17.48;12.28;;;;;;;10.78;100.00;100650.13;1744284;82;20996;-61
2022/04/07 06:25:22;;;;;;;18.30;12.13;;;;;;;10.72;100.00;100655.99;1744430;82;21047;-62
2022/04/07 06:27:50;;;;;;;19.48;11.38;;;;;;;10.78;100.00;100653.98;1742782;82;21114;-62
2022/04/07 06:30:21;;;;;;;18.05;11.22;;;;;;;10.89;100.00;100655.27;1745024;82;20969;-62
2022/04/07 06:32:49;;;;;;;14.73;11.18;;;;;;;10.90;100.00;100650.52;1740990;82;21457;-62
2022/04/07 06:35:17;;;;;;;14.45;10.80;;;;;;;10.99;100.00;100648.38;1746854;82;21052;-62
2022/04/07 06:37:54;;;;;;;15.50;11.08;;;;;;;11.12;100.00;100641.41;1740211;82;21107;-62
2022/04/07 06:40:30;;;;;;;16.67;11.05;;;;;;;11.31;100.00;100635.80;1746095;81;21052;-62
2022/04/07 06:42:59;;;;;;;13.10;10.58;;;;;;;11.51;100.00;100636.64;1742542;82;21107;-62
2022/04/07 06:45:29;;;;;;;14.75;10.60;;;;;;;11.61;100.00;100636.14;1744400;82;20956;-62
2022/04/07 06:47:57;;;;;;;18.87;10.32;;;;;;;11.74;100.00;100628.69;1743187;82;21515;-63
2022/04/07 06:50:26;;;;;;;14.65;10.43;;;;;;;11.91;100.00;100629.66;1751310;82;21067;-62
2022/04/07 06:52:55;;;;;;;16.07;10.80;;;;;;;11.99;100.00;100629.66;1742262;82;21047;-61
2022/04/07 06:55:23;;;;;;;17.00;11.35;;;;;;;12.18;100.00;100624.90;1746605;82;21087;-61
2022/04/07 06:57:57;;;;;;;16.55;10.72;;;;;;;12.25;100.00;100624.13;1729596;82;21047;-61
2022/04/07 07:00:33;;;;;;;15.78;11.00;;;;;;;12.38;100.00;100626.50;1755575;81;21040;-61
2022/04/07 07:03:04;;;;;;;14.78;10.55;;;;;;;12.46;99.56;100626.13;1756633;81;21127;-62
2022/04/07 07:05:35;;;;;;;13.43;9.75;;;;;;;12.54;97.42;100627.41;1755775;81;21023;-61
2022/04/07 07:08:21;;;;;;;12.70;9.53;;;;;;;12.69;95.86;100628.83;1746579;82;20957;-61
2022/04/07 07:10:51;;;;;;;12.75;8.85;;;;;;;12.84;95.27;100621.59;1751538;82;21042;-63
2022/04/07 07:13:21;;;;;;;10.63;8.55;;;;;;;13.15;93.04;100623.86;1745787;82;21017;-62
2022/04/07 07:15:49;;;;;;;10.40;8.75;;;;;;;13.31;90.43;100633.80;1750335;82;20972;-62
2022/04/07 07:18:17;;;;;;;13.60;8.50;;;;;;;13.40;89.77;100625.56;1753113;82;21476;-62
2022/04/07 07:20:44;;;;;;;12.50;8.90;;;;;;;13.62;88.29;100620.05;1747241;81;21040;-62
2022/04/07 07:23:12;;;;;;;14.80;8.80;;;;;;;13.71;88.13;100617.88;1746634;82;21008;-62
2022/04/07 07:25:39;;;;;;;10.43;8.60;;;;;;;13.80;86.19;100622.52;1724061;83;21035;-62
2022/04/07 07:28:09;;;;;;;10.48;7.50;;;;;;;13.88;83.59;100618.22;1741047;82;21023;-62
2022/04/07 07:30:36;;;;;;;12.65;8.63;;;;;;;13.97;83.20;100615.95;1720590;82;21476;-63
2022/04/07 07:33:07;;;;;;;11.85;7.90;;;;;;;14.05;80.98;100622.00;1696992;84;21056;-62
2022/04/07 07:35:36;;;;;;;10.30;8.05;;;;;;;14.12;80.67;100603.88;1735106;82;21036;-62
2022/04/07 07:38:05;;;;;;;10.03;7.95;;;;;;;14.12;77.92;100606.47;1686023;85;21024;-62
2022/04/07 07:40:33;;;;;;;9.68;7.45;;;;;;;14.36;79.47;100609.87;1747667;82;21114;-62
2022/04/07 07:43:02;;;;;;;9.65;7.22;;;;;;;14.83;79.47;100603.66;1756570;81;21043;-62
2022/04/07 07:45:38;;;;;;;9.58;6.67;;;;;;;15.16;76.93;100608.52;1756834;82;21043;-62
2022/04/07 07:48:07;;;;;;;9.55;6.72;;;;;;;15.15;74.92;100608.64;1756826;82;21028;-62
2022/04/07 07:50:45;;;;;;;8.63;6.97;;;;;;;15.25;72.05;100607.59;1756895;82;21055;-62
2022/04/07 07:53:14;;;;;;;8.55;6.65;;;;;;;15.30;72.08;100612.04;1756567;82;21083;-62
2022/04/07 07:55:42;;;;;;;8.83;6.65;;;;;;;15.51;72.71;100595.58;1756646;81;21622;-63
2022/04/07 07:58:11;;;;;;;8.00;6.55;;;;;;;15.62;72.29;100600.94;1755693;81;21523;-62
2022/04/07 08:00:38;;;;;;;8.93;6.80;;;;;;;15.67;71.04;100594.14;1755485;82;21079;-62
2022/04/07 08:03:07;;;;;;;8.33;5.97;;;;;;;15.86;69.95;100600.33;1755115;82;21552;-62
2022/04/07 08:05:35;;;;;;;7.47;5.60;;;;;;;15.87;68.06;100592.90;1754825;82;21043;-63
2022/04/07 08:08:05;;;;;;;8.78;6.00;;;;;;;15.67;67.84;100583.77;1755033;82;21066;-62
2022/04/07 08:10:34;;;;;;;10.08;5.85;;;;;;;15.97;67.98;100584.40;1721502;83;21650;-62
2022/04/07 08:13:03;;;;;;;6.83;5.58;;;;;;;16.08;65.99;100581.12;1785738;80;21078;-62
2022/04/07 08:15:31;;;;;;;7.90;5.62;;;;;;;16.09;65.46;100579.34;1785249;80;20996;-63
2022/04/07 08:17:59;;;;;;;11.48;5.75;;;;;;;16.20;66.37;100567.80;1742219;82;21505;-62
2022/04/07 08:20:26;;;;;;;8.60;5.35;;;;;;;16.31;63.94;100574.86;1755916;80;21002;-63
2022/04/07 08:22:53;;;;;;;7.42;5.60;;;;;;;16.25;64.70;100564.88;1715226;83;21052;-62
2022/04/07 08:25:23;;;;;;;10.85;5.87;;;;;;;16.49;64.58;100563.22;1739262;82;21438;-62
2022/04/07 08:27:50;;;;;;;8.18;5.15;;;;;;;16.49;63.32;100559.80;1738670;82;21008;-62
2022/04/07 08:30:17;;;;;;;6.62;4.95;;;;;;;16.55;62.94;100548.98;1739315;82;21048;-62
2022/04/07 08:32:48;;;;;;;6.42;4.95;;;;;;;16.65;61.53;100548.71;1745980;82;21026;-63
2022/04/07 08:35:16;;;;;;;5.33;4.80;;;;;;;16.58;61.83;100540.96;1736596;82;21036;-62
2022/04/07 08:37:44;;;;;;;7.12;5.20;;;;;;;16.62;62.07;100538.03;1740473;82;21051;-62
2022/04/07 08:40:11;;;;;;;5.30;4.65;;;;;;;16.68;61.44;100536.79;1738380;82;21048;-62
2022/04/07 08:42:40;;;;;;;9.98;5.50;;;;;;;16.94;61.56;100535.48;1742881;82;21043;-62
2022/04/07 08:45:08;;;;;;;6.90;4.95;;;;;;;16.96;60.83;100533.13;1742269;82;21014;-62
2022/04/07 08:47:38;;;;;;;8.18;5.03;;;;;;;16.98;60.09;100522.63;1744470;82;20988;-62
2022/04/07 08:50:08;;;;;;;6.92;4.80;;;;;;;17.00;59.03;100528.55;1709204;82;21031;-62
2022/04/07 08:52:36;;;;;;;9.50;4.80;;;;;;;17.04;57.80;100521.37;1747534;82;20980;-62
2022/04/07 08:55:06;;;;;;;5.42;4.47;;;;;;;17.10;57.58;100519.63;1712914;83;21075;-62
2022/04/07 08:57:35;;;;;;;5.42;4.60;;;;;;;16.97;55.92;100533.50;1744326;82;21591;-62
2022/04/07 09:00:04;;;;;;;6.28;4.33;;;;;;;17.06;55.72;100522.91;1739642;82;21416;-62
2022/04/07 09:02:31;;;;;;;7.15;4.22;;;;;;;17.18;54.57;100523.33;1708395;83;21013;-62
2022/04/07 09:04:59;;;;;;;5.60;4.12;;;;;;;17.17;53.45;100519.53;1741019;82;21111;-62
2022/04/07 09:07:32;;;;;;;6.05;4.10;;;;;;;17.21;53.49;100511.87;1740553;82;21508;-62
2022/04/07 09:10:03;;;;;;;5.65;4.20;;;;;;;17.19;52.08;100502.05;1702809;84;21052;-62
2022/04/07 09:12:34;;;;;;;6.80;4.22;;;;;;;17.21;52.87;100494.96;1711635;83;20976;-62
2022/04/07 09:15:03;;;;;;;5.78;3.98;;;;;;;17.28;52.95;100490.98;1755463;80;21464;-62
2022/04/07 09:17:37;;;;;;;4.75;3.70;;;;;;;17.56;53.37;100487.69;1738165;82;20998;-62
2022/04/07 09:20:09;;;;;;;5.72;3.80;;;;;;;17.83;52.99;100484.82;1742243;82;21492;-62
2022/04/07 09:22:37;;;;;;;8.13;3.67;;;;;;;17.87;51.24;100486.25;1741199;82;21029;-62
2022/04/07 09:25:06;;;;;;;4.70;3.85;;;;;;;17.61;50.99;100477.27;1758183;80;20960;-61
2022/04/07 09:27:43;;;;;;;5.65;3.65;;;;;;;17.56;50.39;100474.67;1744881;80;21020;-63
2022/04/07 09:30:12;;;;;;;5.65;3.75;;;;;;;17.58;51.15;100467.09;1744239;80;21093;-61
2022/04/07 09:32:44;;;;;;;5.37;3.85;;;;;;;17.67;51.34;100468.66;1759062;80;21023;-63
2022/04/07 09:35:13;;;;;;;5.17;4.10;;;;;;;17.62;50.77;100467.23;1751125;80;21468;-62
2022/04/07 09:37:43;;;;;;;6.00;4.10;;;;;;;17.61;51.67;100456.92;1758730;80;20991;-62
2022/04/07 09:40:14;;;;;;;8.05;3.80;;;;;;;17.61;51.76;100450.41;1740241;82;21027;-61
2022/04/07 09:42:42;;;;;;;8.70;4.47;;;;;;;17.85;51.90;100453.47;1744541;82;20984;-61
2022/04/07 09:45:13;;;;;;;5.80;4.17;;;;;;;18.04;51.81;100447.20;1757981;80;20966;-61
2022/04/07 09:47:49;;;;;;;8.20;4.10;;;;;;;18.19;50.66;100450.42;1716526;83;21111;-63
2022/04/07 09:50:32;;;;;;;9.75;3.77;;;;;;;18.05;50.41;100439.75;1748332;82;21500;-62
2022/04/07 09:53:06;;;;;;;6.33;4.10;;;;;;;18.04;50.77;100429.45;1760628;80;21583;-62
2022/04/07 09:55:42;;;;;;;8.80;4.25;;;;;;;18.36;52.05;100430.86;1749972;80;21031;-61
2022/04/07 09:58:12;;;;;;;9.55;4.20;;;;;;;18.65;50.49;100425.12;1744568;80;20987;-62
2022/04/07 10:00:42;;;;;;;6.35;4.20;;;;;;;18.64;49.88;100415.67;1759015;80;21002;-62
2022/04/07 10:03:10;;;;;;;9.30;4.22;;;;;;;18.71;49.95;100423.34;1744390;80;21050;-63
2022/04/07 10:05:39;;;;;;;7.22;3.98;;;;;;;18.60;50.45;100411.16;1739041;82;20983;-62
2022/04/07 10:08:10;;;;;;;6.72;3.58;;;;;;;18.55;50.75;100414.59;1742732;82;21158;-63
2022/04/07 10:10:39;;;;;;;8.73;3.87;;;;;;;18.58;49.58;100403.46;1743113;82;21023;-61
2022/04/07 10:13:10;;;;;;;5.42;3.77;;;;;;;18.60;50.38;100400.73;1743034;82;21483;-62
2022/04/07 10:15:38;;;;;;;7.17;4.03;;;;;;;18.52;48.86;100401.34;1739853;82;21028;-62
2022/04/07 10:18:09;;;;;;;8.83;4.50;;;;;;;18.55;48.88;100391.14;1710328;82;21521;-62
2022/04/07 10:20:41;;;;;;;6.25;4.45;;;;;;;18.75;51.96;100395.58;1696649;84;21033;-62
2022/04/07 10:23:42;;;;;;;6.95;4.10;;;;;;;18.60;51.88;100386.40;1756712;82;21059;-62
2022/04/07 10:26:11;;;;;;;7.33;4.42;;;;;;;18.78;52.04;100381.49;1756175;82;21520;-62
2022/04/07 10:28:38;;;;;;;7.00;4.08;;;;;;;18.76;49.26;100378.18;1725933;82;21041;-62
2022/04/07 10:31:15;;;;;;;6.40;3.85;;;;;;;18.90;51.13;100378.41;1725680;83;21014;-62
2022/04/07 10:33:50;;;;;;;6.90;4.10;;;;;;;19.10;50.75;100370.23;1691546;83;21055;-62
2022/04/07 10:36:20;;;;;;;6.58;3.80;;;;;;;19.21;48.70;100379.32;1703613;83;21083;-62
2022/04/07 10:38:51;;;;;;;7.87;3.92;;;;;;;19.09;49.81;100380.33;1735786;82;21027;-62
2022/04/07 10:41:42;;;;;;;4.30;3.62;;;;;;;19.15;50.65;100381.95;1726800;82;21011;-62
2022/04/07 10:44:22;;;;;;;5.20;4.10;;;;;;;19.10;49.76;100366.31;1727598;82;21575;-62
2022/04/07 10:46:52;;;;;;;4.58;3.42;;;;;;;18.88;49.02;100361.57;1719744;82;20997;-62
2022/04/07 10:49:26;;;;;;;6.33;3.80;;;;;;;18.92;50.90;100358.24;1731100;82;21080;-62
2022/04/07 10:51:55;;;;;;;;;;;;;;;19.13;52.05;100356.95;1742975;82;21062;-63
2022/04/07 10:54:26;;;;;;;5.95;4.00;;;;;;;19.28;52.11;100345.70;1740374;82;20150;-63
2022/04/07 10:56:56;;;;;;;7.62;4.35;;;;;;;19.51;51.64;100355.06;1740422;82;21140;-62
2022/04/07 10:59:30;;;;;;;8.80;4.05;;;;;;;19.70;51.39;100341.27;1710116;82;21501;-62
2022/04/07 11:02:02;;;;;;;6.05;4.22;;;;;;;19.72;51.91;100343.30;1687759;83;21656;-62
2022/04/07 11:04:54;;;;;;;6.40;4.40;;;;;;;19.67;50.85;100343.30;1739708;82;21496;-62
2022/04/07 11:07:23;;;;;;;5.05;4.00;;;;;;;19.71;51.80;100338.23;1737077;83;21603;-62
2022/04/07 11:10:03;;;;;;;6.72;4.20;;;;;;;19.70;50.87;100337.34;1737832;82;21032;-62
2022/04/07 11:12:40;;;;;;;6.12;4.10;;;;;;;19.69;51.45;100333.55;1722324;82;21060;-62
2022/04/07 11:15:35;;;;;;;11.35;5.17;;;;;;;19.67;51.81;100323.71;1722376;83;21071;-62
2022/04/07 11:18:07;;;;;;;5.75;4.05;;;;;;;19.73;51.26;100315.41;1722330;83;21098;-62
2022/04/07 11:20:36;;;;;;;5.03;4.17;;;;;;;19.91;51.22;100312.98;1722924;82;21114;-63
2022/04/07 11:23:06;;;;;;;7.03;4.25;;;;;;;20.07;51.52;100308.56;1752372;82;21016;-62
2022/04/07 11:25:37;;;;;;;6.85;4.28;;;;;;;19.89;51.41;100297.46;1749837;82;20972;-64